Ergebnisliste vom: 06.05.2023 - Briesensee-Duathlon2023 - 10km - 42km - 5,5km

weitere Ergebnisse >>

Platz Plm Plw StNr. Name,Vorname Verein AK AKm AKw Endzeit 1.Laufzeit Radzeit 1.Lauf+Rad 2.Laufzeit RŁckst. ZS WB
1 1   38 Lehmann, Ronald TV F√ľrstenwalde 1990 Erdinger Active Team DM30 1   1:58:01 0:36:06( 1 ) 1:02:45( 1 ) 1:38:51( 1 ) 0:19:10( 2 ) 0:00:00   5
2 2   25 von Oy, Valentin A3K Berlin DM30 2   2:03:39 0:36:40( 3 ) 1:06:56( 3 ) 1:43:36( 2 ) 0:20:03( 4 ) 0:05:38   4
3 3   15 Meinke, Joshua Division BPM DM25 1   2:03:54 0:37:21( 4 ) 1:07:28( 5 ) 1:44:49( 5 ) 0:19:05( 1 ) 0:05:53   4
4 4   90 Mazurov, Oleg   DM45 1   2:04:15 0:36:38( 2 ) 1:07:45( 6 ) 1:44:23( 4 ) 0:19:52( 3 ) 0:06:14   3
5 5   19 Sander, Stefan KSV Ajax-Neptun Belin DM40 1   2:05:15 0:38:48( 5 ) 1:05:31( 2 ) 1:44:19( 3 ) 0:20:56( 7 ) 0:07:14   4
6 6   72 Kitsche, Marco Klipphausen DM45 2   2:09:14 0:39:16( 8 ) 1:09:41( 10 ) 1:48:57( 6 ) 0:20:17( 5 ) 0:11:13   3
7 7   29 Bernau, Stefan DLRG Luckenwalde DM35 1   2:10:53 0:39:52( 10 ) 1:10:07( 13 ) 1:49:59( 9 ) 0:20:54( 6 ) 0:12:52   5
8 8   14 Arnoth, Jozsef Berliner Wasserratten DM45 3   2:11:08 0:39:00( 6 ) 1:10:07( 12 ) 1:49:07( 7 ) 0:22:01( 10 ) 0:13:07   4
9 9   54 Braun, Reiner SCC Berlin Duathlon DM55 1   2:11:40 0:39:04( 7 ) 1:10:48( 14 ) 1:49:52( 8 ) 0:21:48( 9 ) 0:13:39   4
10 10   11 Klaue, Stefan Tri-Finisher Berlin DM35 2   2:12:17 0:41:47( 15 ) 1:08:14( 7 ) 1:50:01( 10 ) 0:22:16( 13 ) 0:14:16   4
11 11   40 Rex, Bryam TSV Cottbus DM20 1   2:12:32 0:41:45( 14 ) 1:08:38( 8 ) 1:50:23( 12 ) 0:22:09( 11 ) 0:14:31   5
12 12   42 Rohde, Leonard Triathlon Team Senftenberg DM35 3   2:12:55 0:40:34( 12 ) 1:09:54( 11 ) 1:50:28( 13 ) 0:22:27( 14 ) 0:14:54   5
13 13   91 L√ľderitz, Robert KONA Endurance DM25 2   2:12:59 0:43:03( 19 ) 1:06:59( 4 ) 1:50:02( 11 ) 0:22:57( 17 ) 0:14:58   3
14 14   68 Hornschild, Aaron Potsdamer Laufclub DM30 3   2:17:41 0:40:15( 11 ) 1:15:12( 23 ) 1:55:27( 16 ) 0:22:14( 12 ) 0:19:40   3
15 15   55 Beyer, Dirk-Oliver TuS Neuk√∂lln Berlin DM50 1   2:17:47 0:42:53( 17 ) 1:09:39( 9 ) 1:52:32( 14 ) 0:25:15( 29 ) 0:19:46   4
16 16   2 Bossart, Augustin A3k Berlin DM40 2   2:18:15 0:42:05( 16 ) 1:12:44( 16 ) 1:54:49( 15 ) 0:23:26( 19 ) 0:20:14   4
17 17   59 Broska, Arne Elmo DM35 4   2:20:34 0:39:21( 9 ) 1:18:42( 29 ) 1:58:03( 18 ) 0:22:31( 15 ) 0:22:33   3
18 18   51 Weigert, David ReWork DM40 3   2:20:44 0:43:02( 18 ) 1:14:53( 21 ) 1:57:55( 17 ) 0:22:49( 16 ) 0:22:43   3
19 19   35 K√∂pke, Sascha MSV Tripoint Frankfurt Oder DM35 5   2:22:18 0:43:18( 21 ) 1:15:32( 25 ) 1:58:50( 20 ) 0:23:28( 20 ) 0:24:17   5
20 20   34 Hell, Andreas MSV Tripoint Frankfurt Oder DM50 2   2:22:58 0:44:45( 25 ) 1:13:58( 18 ) 1:58:43( 19 ) 0:24:15( 22 ) 0:24:57   5
21 21   18 Postel, Michael A3K Berlin DM50 3   2:23:45 0:44:55( 28 ) 1:14:25( 20 ) 1:59:20( 22 ) 0:24:25( 23 ) 0:25:44   4
22 22   130 Brandt, Marco TLV Rangsdorf DM40 4   2:23:55 0:44:44( 24 ) 1:14:09( 19 ) 1:58:53( 21 ) 0:25:02( 28 ) 0:25:54   3
23 23   36 Krause, Thilo MSV Tripoint Frankfurt Oder DM55 2   2:24:50 0:44:46( 26 ) 1:15:31( 24 ) 2:00:17( 24 ) 0:24:33( 24 ) 0:26:49   5
24 24   87 Towe, James Rolls-Royce DM40 5   2:25:25 0:44:05( 22 ) 1:19:43( 32 ) 2:03:48( 29 ) 0:21:37( 8 ) 0:27:24   3
25 25   32 G√§rtner, Olaf MSV Tripoint Frankfurt Oder DM50 4   2:25:26 0:44:53( 27 ) 1:15:09( 22 ) 2:00:02( 23 ) 0:25:24( 30 ) 0:27:25   5
26   1 4 Franke, Kati A3K Berlin DW40   1 2:25:29 0:45:45( 31 ) 1:15:46( 26 ) 2:01:31( 26 ) 0:23:58( 21 ) 0:27:28   4
27 26   79 Meinke, Jasper Division BPM DM20 2   2:27:00 0:40:38( 13 ) 1:23:15( 45 ) 2:03:53( 30 ) 0:23:07( 18 ) 0:28:59   3
28 27   9 Isaac, Carl Sisu Berlin DM50 5   2:27:12 0:45:44( 30 ) 1:16:28( 28 ) 2:02:12( 27 ) 0:25:00( 27 ) 0:29:11   4
29 28   58 Biastoch, Lutz Triathlon Team Lausitz DM55 3   2:27:30 0:44:08( 23 ) 1:16:14( 27 ) 2:00:22( 25 ) 0:27:08( 40 ) 0:29:29   3
30 29   8 Hein, Benjamin BSV Friesen 1895 DM45 4   2:31:13 0:44:57( 29 ) 1:21:16( 39 ) 2:06:13( 32 ) 0:25:00( 26 ) 0:33:12   4
31 30   22 Stobbe, Juri a3k Berlin DM45 5   2:31:38 0:49:13( 46 ) 1:13:42( 17 ) 2:02:55( 28 ) 0:28:43( 51 ) 0:33:37   4
32   2 1 Berenfeld, Irina SCC Berlin DW50   1 2:31:50 0:46:37( 33 ) 1:19:47( 33 ) 2:06:24( 33 ) 0:25:26( 31 ) 0:33:49   4
33 31   50 Gaylard, Andre power & pace DM45 6   2:32:40 0:43:08( 20 ) 1:24:59( 54 ) 2:08:07( 38 ) 0:24:33( 24 ) 0:34:39   3
34 32   28 Barke, Matthias Bernauer Lauffreunde DM45 7   2:33:21 0:53:31( 64 ) 1:11:44( 15 ) 2:05:15( 31 ) 0:28:06( 46 ) 0:35:20   5
35 33   49 Yule, Stuart Sisu Berlin DM50 6   2:33:48 0:47:17( 37 ) 1:20:31( 37 ) 2:07:48( 37 ) 0:26:00( 34 ) 0:35:47   4
36 34   24 Stolz, Andreas BSV Friesen 1895 DM55 4   2:33:55 0:47:15( 35 ) 1:20:11( 35 ) 2:07:26( 36 ) 0:26:29( 37 ) 0:35:54   4
37   3 39 Liepner, Sybille Bernauer Lauffreunde DW50   2 2:34:44 0:47:23( 38 ) 1:21:48( 40 ) 2:09:11( 39 ) 0:25:33( 32 ) 0:36:43   5
38 35   82 R√∂mhild, Gregor Tri Finisher Berlin DM50 7   2:34:50 0:47:26( 39 ) 1:19:26( 31 ) 2:06:52( 35 ) 0:27:58( 44 ) 0:36:49   3
39 36   20 Schubert, Falk Tri-Finisher Berlin DM45 8   2:36:27 0:49:45( 48 ) 1:20:08( 34 ) 2:09:53( 40 ) 0:26:34( 38 ) 0:38:26   4
40 37   6 G√∂ller, Christoph BSV Friesen 1895 DM50 8   2:37:01 0:47:15( 35 ) 1:23:29( 46 ) 2:10:44( 42 ) 0:26:17( 36 ) 0:39:00   4
41 38   86 Tondasch, Chris Berlin DM45 9   2:37:35 0:49:05( 45 ) 1:21:51( 41 ) 2:10:56( 43 ) 0:26:39( 39 ) 0:39:34   3
42 39   84 Schneider, Marco SG J√§nschwalde DM35 6   2:39:19 0:48:46( 42 ) 1:21:10( 38 ) 2:09:56( 41 ) 0:29:23( 56 ) 0:41:18   3
43 40   23 Stolle, Guido BSV Friesen 1895 DM50 9   2:39:38 0:49:50( 51 ) 1:23:44( 49 ) 2:13:34( 47 ) 0:26:04( 35 ) 0:41:37   4
44 41   93 Blumreiter, Torsten Team Zeppelin OSC Postdam DM50 10   2:40:31 0:46:01( 32 ) 1:20:24( 36 ) 2:06:25( 34 ) 0:34:06( 73 ) 0:42:30   3
45 42   45 Talabudzinow, Olaf Bernauer Lauffreunde DM60 1   2:40:45 0:48:32( 41 ) 1:23:52( 50 ) 2:12:24( 45 ) 0:28:21( 48 ) 0:42:44   5
46 43   10 Kiolbassa, Michael KSV Ajax-Neptun Berlin DM40 6   2:41:08 0:49:48( 49 ) 1:24:01( 53 ) 2:13:49( 48 ) 0:27:19( 41 ) 0:43:07   4
47 44   77 Lindner, Oliver ASV Zeuthen DM45 10   2:42:05 0:49:00( 44 ) 1:23:56( 51 ) 2:12:56( 46 ) 0:29:09( 55 ) 0:44:04   3
48 45   44 Schr√∂ter, Bodo Ruppiner Triathlon Verein DM65 1   2:43:08 0:52:47( 59 ) 1:22:18( 42 ) 2:15:05( 50 ) 0:28:03( 45 ) 0:45:07   5
49 46   81 Riech, Benny Team Riech DM40 7   2:43:24 0:51:36( 56 ) 1:22:55( 43 ) 2:14:31( 49 ) 0:28:53( 53 ) 0:45:23   3
50 47   41 Rampazzo, Daniele Triathlon Potsdam DM50 11   2:44:12 0:48:22( 40 ) 1:27:29( 59 ) 2:15:51( 52 ) 0:28:21( 47 ) 0:46:11   5
51 48   75 Kr√ľger, Sascha Hagi Racing Team DM40 8   2:44:59 0:53:23( 62 ) 1:23:01( 44 ) 2:16:24( 54 ) 0:28:35( 50 ) 0:46:58   3
52   4 7 Gottschalk, Jessica Tri-Finisher Berlin DW30   1 2:45:12 0:49:51( 52 ) 1:26:51( 58 ) 2:16:42( 55 ) 0:28:30( 49 ) 0:47:11   4
53 49   85 Schneider, Richard SG J√§nschwalde DM25 3   2:45:30 0:51:31( 55 ) 1:23:36( 48 ) 2:15:07( 51 ) 0:30:23( 60 ) 0:47:29   3
54   5 76 Kuhr, Andrea Tri-Finisher Berlin DW35   1 2:46:37 0:51:18( 54 ) 1:26:16( 56 ) 2:17:34( 56 ) 0:29:03( 54 ) 0:48:36   3
55 50   30 Fenske, Norbert TLV Rangsdorf DM65 2   2:46:45 0:52:18( 57 ) 1:23:56( 52 ) 2:16:14( 53 ) 0:30:31( 61 ) 0:48:44   5
56   6 17 M√ľller, Cornelia Teamwork Berlin DW55   1 2:48:01 0:54:08( 66 ) 1:23:32( 47 ) 2:17:40( 57 ) 0:30:21( 59 ) 0:50:00   4
57   7 66 Gro√ümann, Antje Berlin DW40   2 2:49:08 0:49:16( 47 ) 1:32:32( 67 ) 2:21:48( 60 ) 0:27:20( 42 ) 0:51:07   3
58 51   92 Rodenb√§ck, Simon Team Work Berlin DM25 4   2:49:47 0:46:41( 34 ) 1:35:19( 71 ) 2:22:00( 61 ) 0:27:47( 43 ) 0:51:46   3
59   8 71 Kaufmann, Aline   DW25   1 2:50:31 0:48:52( 43 ) 1:35:40( 72 ) 2:24:32( 64 ) 0:25:59( 33 ) 0:52:30   3
60 52   53 Troppenz, Mario power & pace DM50 12   2:51:27 0:49:52( 53 ) 1:29:29( 60 ) 2:19:21( 58 ) 0:32:06( 70 ) 0:53:26   3
61 53   80 Melzer, Sven Tri-Finisher Berlin DM35 7   2:51:33 0:54:48( 67 ) 1:26:25( 57 ) 2:21:13( 59 ) 0:30:20( 58 ) 0:53:32   3
62 54   37 Krause, Torben DLRG Luckenwalde DM45 11   2:53:07 0:56:19( 70 ) 1:26:16( 55 ) 2:22:35( 62 ) 0:30:32( 62 ) 0:55:06   5
63 55   62 Ebert, Andreas SC Einheit Dresden DM60 2   2:53:41 0:55:08( 69 ) 1:29:46( 61 ) 2:24:54( 65 ) 0:28:47( 52 ) 0:55:40   3
64   9 13 K√∂ppen, Julia Tri Team Berlin DW40   3 2:55:14 0:52:52( 60 ) 1:30:32( 62 ) 2:23:24( 63 ) 0:31:50( 69 ) 0:57:13   4
65   10 3 Cawein, Cosima TVB 09 DW20   1 2:57:01 0:55:01( 68 ) 1:30:35( 63 ) 2:25:36( 66 ) 0:31:25( 68 ) 0:59:00   4
66   11 57 Barke, Daniela PSV Wandlitz DW50   3 2:58:38 0:53:30( 63 ) 1:35:18( 70 ) 2:28:48( 70 ) 0:29:50( 57 ) 1:00:37   3
67   12 63 Eigenberger, Paula Fr√§ulein Triathlon DW25   2 2:58:47 0:53:32( 65 ) 1:34:26( 69 ) 2:27:58( 69 ) 0:30:49( 64 ) 1:00:46   3
68 56   60 Diehle, Christian FalscheFuffis DM25 5   2:58:54 0:49:49( 50 ) 1:36:32( 73 ) 2:26:21( 67 ) 0:32:33( 71 ) 1:00:53   3
69   13 5 Gersch, Anette VfV Spandau DW55   2 2:59:07 0:56:47( 71 ) 1:31:07( 64 ) 2:27:54( 68 ) 0:31:13( 67 ) 1:01:06   4
70   14 56 Augsten, Anke Berlin DW45   1 2:59:48 0:57:40( 74 ) 1:31:35( 65 ) 2:29:15( 72 ) 0:30:33( 63 ) 1:01:47   3
71   15 89 Velke, Sabine Triathlon Team Berlin DW45   2 3:00:00 0:56:49( 73 ) 1:32:10( 66 ) 2:28:59( 71 ) 0:31:01( 65 ) 1:01:59   4
72 57   83 Schicho, Thomas Sch√∂nebegker Vetschau DM55 5   3:01:27 0:52:39( 58 ) 1:37:42( 75 ) 2:30:21( 73 ) 0:31:06( 66 ) 1:03:26   3
73   16 88 Wojtasik, Marta Tri-Finisher Berlin DW30   2 3:09:43 0:56:48( 72 ) 1:40:18( 76 ) 2:37:06( 75 ) 0:32:37( 72 ) 1:11:42   3
74 58   158 Laaser, Hans MRRC M√ľnchen DM70 1   3:10:57 1:01:35( 75 ) 1:33:59( 68 ) 2:35:34( 74 ) 0:35:23( 75 ) 1:12:56   3
75 59   52 Hensel, Andreas TuS Neuk√∂lln Berlin DM55 6   3:14:03 0:53:21( 61 ) 1:18:50( 30 ) 2:12:11( 44 ) 1:01:52( 79 ) 1:16:02   4
76   17 31 Fischer, Franka DLRG Luckenwalde DW60   1 3:24:35 1:04:10( 76 ) 1:42:54( 77 ) 2:47:04( 77 ) 0:37:31( 76 ) 1:26:34   5
77 60   33 Geike, Hans-Ulrich RSC Cottbus-Veloteam DM75 1   3:27:45 1:08:58( 79 ) 1:37:21( 74 ) 2:46:19( 76 ) 0:41:26( 78 ) 1:29:44   5
78   18 46 Tr√§ger, Marion Triathlon Potsdam DW70   1 3:29:03 1:04:15( 77 ) 1:50:42( 79 ) 2:54:57( 79 ) 0:34:06( 73 ) 1:31:02   5
79 61   47 Winkler, Thomas DLRG Luckenwalde DM65 3   3:30:22 1:04:28( 78 ) 1:47:06( 78 ) 2:51:34( 78 ) 0:38:48( 77 ) 1:32:21   5
      73 Klima, Colette Weltraumjogger Berlin DW45     0:00:00 1:14:49( 80 ) 0:00:00 0:00:00 0:00:00 0:00:00 Aufg. 6
(c) 1990-2023 Blue Wonder Sport Promotion - Andreas Burow - Zeitnahme & Auswertung - www.Triathlon-Service.de